Great Marton, United Kingdom
Current Conditions -  °F | °C
As of 8:50 PM on Thursday 18 Dec 2014 (Local Time) from EGNH Reporting Station
Drizzle Drizzle  
Wind Chill: 50°   Ceiling: 1300
Heat Index: 50°   Visibility: 4mi
Dew Point: 48°   Wind: 17mph
Humidity: 94%   Direction: 270°W
Pressure: 29.62"   Gusts: NA
Location:  53.81°N, 3.02°W
Report Text: EGNH 182050Z 27015KT 6000 -DZ SCT005 BKN013 10/09 Q1003
Loading
Personal Weather Stations






























Interactive Weather Map New forecast layout! Learn more

10-Day Weather Forecast

Advertisements
Track Severe Weather on mobile